Time;durP1;ratioP1;P1;durP2;ratioP2;P2;SDS_P1;SDS_P2;PMS_P1;PMS_P2;Temp;Humidity;BMP_temperature;BMP_pressure;BME280_temperature;BME280_humidity;BME280_pressure;Samples;Min_cycle;Max_cycle;Signal;HPM_P1;HPM_P2
2023/12/24 00:01:33;;;;;;;1.83;1.10;;;;;;;1.24;100.00;99815.06;4998546;28;20209;-75
2023/12/24 00:04:00;;;;;;;1.20;1.10;;;;;;;1.24;100.00;99812.47;4999423;28;20273;-75
2023/12/24 00:06:27;;;;;;;4.33;1.50;;;;;;;1.22;100.00;99819.78;5001120;28;20272;-75
2023/12/24 00:08:54;;;;;;;3.27;1.30;;;;;;;1.23;100.00;99812.75;5016189;28;20205;-75
2023/12/24 00:11:20;;;;;;;1.20;1.10;;;;;;;1.22;100.00;99819.78;4998748;28;20665;-75
2023/12/24 00:13:46;;;;;;;1.90;1.23;;;;;;;1.21;100.00;99820.81;5001087;28;20684;-75
2023/12/24 00:16:13;;;;;;;1.80;1.20;;;;;;;1.21;100.00;99820.81;4999107;28;20307;-75
2023/12/24 00:18:41;;;;;;;2.50;1.03;;;;;;;1.21;100.00;99818.22;4996834;28;20201;-75
2023/12/24 00:21:07;;;;;;;1.40;1.10;;;;;;;1.20;100.00;99819.28;4995264;28;20567;-75
2023/12/24 00:23:33;;;;;;;1.37;1.17;;;;;;;1.20;100.00;99826.31;4997036;28;20665;-75
2023/12/24 00:26:00;;;;;;;1.50;1.20;;;;;;;1.20;100.00;99826.31;4999008;28;20205;-75
2023/12/24 00:28:26;;;;;;;2.37;1.00;;;;;;;1.20;100.00;99823.72;5002647;28;20664;-75
2023/12/24 00:30:52;;;;;;;1.70;1.20;;;;;;;1.20;100.00;99821.88;4997338;28;20689;-75
2023/12/24 00:33:19;;;;;;;1.10;0.80;;;;;;;1.19;100.00;99827.38;5000080;28;20673;-75
2023/12/24 00:35:46;;;;;;;2.97;1.23;;;;;;;1.20;100.00;99834.13;5000009;28;20239;-75
2023/12/24 00:38:13;;;;;;;1.30;0.90;;;;;;;1.19;100.00;99832.59;5001101;28;20212;-75
2023/12/24 00:40:39;;;;;;;0.70;0.70;;;;;;;1.19;100.00;99829.97;5000881;28;20244;-75
2023/12/24 00:43:06;;;;;;;0.90;0.77;;;;;;;1.19;100.00;99827.38;4997725;28;20229;-73
2023/12/24 00:45:32;;;;;;;2.30;0.80;;;;;;;1.18;100.00;99829.19;4999255;28;20567;-75
2023/12/24 00:47:58;;;;;;;0.80;0.80;;;;;;;1.18;100.00;99831.78;4997948;28;20217;-75
2023/12/24 00:50:25;;;;;;;0.90;0.90;;;;;;;1.17;100.00;99832.06;5014336;28;20589;-75
2023/12/24 00:52:53;;;;;;;1.00;0.90;;;;;;;1.17;100.00;99821.66;5000550;28;20300;-75
2023/12/24 00:55:19;;;;;;;1.90;0.90;;;;;;;1.17;100.00;99827.66;4999077;28;20212;-75
2023/12/24 00:57:46;;;;;;;3.80;1.53;;;;;;;1.17;100.00;99825.06;4997272;28;20221;-75
2023/12/24 01:00:14;;;;;;;2.73;1.40;;;;;;;1.18;100.00;99821.41;4999439;28;20628;-73
2023/12/24 01:02:40;;;;;;;2.13;1.47;;;;;;;1.17;100.00;99819.84;5001384;28;20288;-75
2023/12/24 01:05:08;;;;;;;1.50;1.40;;;;;;;1.18;100.00;99815.41;4998927;28;20212;-75
2023/12/24 01:07:34;;;;;;;3.27;1.80;;;;;;;1.18;100.00;99818.78;4992388;28;20213;-75
2023/12/24 01:10:02;;;;;;;2.40;1.60;;;;;;;1.18;100.00;99818.78;4998797;28;20221;-75
2023/12/24 01:12:28;;;;;;;1.77;1.40;;;;;;;1.18;100.00;99818.78;4996518;28;20605;-75
2023/12/24 01:14:55;;;;;;;1.70;1.10;;;;;;;1.18;100.00;99816.19;4997961;28;20204;-75
2023/12/24 01:17:21;;;;;;;1.53;1.20;;;;;;;1.19;100.00;99820.34;4996997;28;20210;-75
2023/12/24 01:19:47;;;;;;;2.37;1.00;;;;;;;1.19;100.00;99817.72;5000922;28;20239;-75
2023/12/24 01:22:14;;;;;;;1.00;0.83;;;;;;;1.18;100.00;99816.19;4999477;28;20255;-74
2023/12/24 01:24:40;;;;;;;2.10;1.00;;;;;;;1.18;100.00;99821.41;4994579;28;20211;-75
2023/12/24 01:27:08;;;;;;;2.47;1.03;;;;;;;1.19;100.00;99814.38;4995290;28;20207;-74
2023/12/24 01:29:34;;;;;;;2.37;1.10;;;;;;;1.19;100.00;99814.38;5000072;28;20460;-75
2023/12/24 01:32:02;;;;;;;1.50;1.10;;;;;;;1.18;100.00;99813.59;5005057;28;20287;-75
2023/12/24 01:34:28;;;;;;;1.63;1.00;;;;;;;1.20;100.00;99815.91;5001580;28;20229;-75
2023/12/24 01:36:56;;;;;;;1.33;1.03;;;;;;;1.19;100.00;99820.34;5001807;28;20200;-73
2023/12/24 01:39:22;;;;;;;0.93;0.90;;;;;;;1.19;100.00;99827.38;4998964;28;20311;-75
2023/12/24 01:41:48;;;;;;;1.10;1.00;;;;;;;1.19;100.00;99819.56;5000456;28;20308;-75
2023/12/24 01:44:16;;;;;;;1.93;1.73;;;;;;;1.19;100.00;99824.78;4997697;28;20378;-75
2023/12/24 01:46:43;;;;;;;1.30;0.90;;;;;;;1.19;100.00;99815.13;4999543;28;20712;-75
2023/12/24 01:49:13;;;;;;;1.20;1.00;;;;;;;1.19;100.00;99819.56;4998952;28;20276;-75
2023/12/24 01:51:39;;;;;;;2.10;0.90;;;;;;;1.20;100.00;99805.50;5005650;28;20201;-75
2023/12/24 01:54:06;;;;;;;1.13;0.93;;;;;;;1.19;100.00;99803.97;5001404;28;20201;-75
2023/12/24 01:56:33;;;;;;;1.20;1.10;;;;;;;1.18;100.00;99798.00;5005007;28;20209;-75
2023/12/24 01:59:00;;;;;;;1.33;1.23;;;;;;;1.19;100.00;99801.38;5002616;28;20239;-75
2023/12/24 02:01:29;;;;;;;1.40;1.10;;;;;;;1.18;100.00;99802.41;5002558;28;20205;-75
2023/12/24 02:03:56;;;;;;;1.27;1.17;;;;;;;1.18;100.00;99805.00;5002749;28;20208;-75
2023/12/24 02:06:26;;;;;;;1.90;1.30;;;;;;;1.19;100.00;99798.78;5005770;28;20199;-75
2023/12/24 02:08:53;;;;;;;1.33;1.00;;;;;;;1.18;100.00;99787.59;4998682;28;20299;-73
2023/12/24 02:11:21;;;;;;;1.67;1.20;;;;;;;1.19;100.00;99809.19;4996884;28;20255;-75
2023/12/24 02:13:47;;;;;;;1.17;1.00;;;;;;;1.17;100.00;99812.06;5004582;28;20759;-75
2023/12/24 02:16:18;;;;;;;1.57;1.30;;;;;;;1.19;100.00;99790.97;4998830;28;20751;-75
2023/12/24 02:18:46;;;;;;;1.50;1.23;;;;;;;1.18;100.00;99799.81;4998670;28;20680;-74
2023/12/24 02:21:13;;;;;;;1.83;1.20;;;;;;;1.16;100.00;99792.31;4994340;28;20222;-74
2023/12/24 02:23:40;;;;;;;1.33;1.07;;;;;;;1.18;100.00;99795.41;5000607;28;20215;-75
2023/12/24 02:26:12;;;;;;;5.53;1.10;;;;;;;1.18;100.00;99782.41;4997849;28;20329;-75
2023/12/24 02:28:41;;;;;;;1.20;1.10;;;;;;;1.18;100.00;99772.00;5002196;28;20718;-75
2023/12/24 02:31:11;;;;;;;1.30;1.20;;;;;;;1.18;100.00;99781.59;4997706;28;20664;-73
2023/12/24 02:33:40;;;;;;;1.10;1.00;;;;;;;1.18;100.00;99779.00;5014751;28;20208;-72
2023/12/24 02:36:08;;;;;;;2.67;1.10;;;;;;;1.19;100.00;99768.34;4998483;28;20201;-72
2023/12/24 02:38:35;;;;;;;1.67;1.07;;;;;;;1.18;100.00;99785.00;4997175;28;20595;-73
2023/12/24 02:41:02;;;;;;;1.40;1.07;;;;;;;1.19;100.00;99780.56;4996277;28;20216;-73
2023/12/24 02:43:28;;;;;;;5.13;1.70;;;;;;;1.20;100.00;99782.88;5003173;28;20219;-73
2023/12/24 02:45:54;;;;;;;1.47;1.23;;;;;;;1.20;100.00;99780.28;5000125;28;20205;-72
2023/12/24 02:48:21;;;;;;;1.47;1.37;;;;;;;1.21;100.00;99788.84;4998830;28;20223;-72
2023/12/24 02:50:47;;;;;;;2.93;1.30;;;;;;;1.20;100.00;99780.28;5003411;28;20389;-72
2023/12/24 02:53:14;;;;;;;0.80;0.80;;;;;;;1.21;100.00;99758.41;5001499;28;20209;-72
2023/12/24 02:55:42;;;;;;;0.83;0.83;;;;;;;1.22;100.00;99765.19;4997349;28;20212;-74
2023/12/24 02:58:08;;;;;;;0.80;0.80;;;;;;;1.23;100.00;99766.72;4999675;28;20635;-73
2023/12/24 03:00:35;;;;;;;1.00;0.90;;;;;;;1.24;100.00;99747.44;4998513;28;20225;-73
2023/12/24 03:03:01;;;;;;;1.20;0.90;;;;;;;1.24;100.00;99744.84;5001141;28;20208;-72
2023/12/24 03:05:27;;;;;;;1.07;0.80;;;;;;;1.23;100.00;99768.53;5001785;28;20227;-73
2023/12/24 03:07:54;;;;;;;1.23;1.13;;;;;;;1.24;100.00;99734.44;5003336;28;20226;-73
2023/12/24 03:10:20;;;;;;;1.53;1.20;;;;;;;1.24;100.00;99738.88;4999089;28;20239;-73
2023/12/24 03:12:48;;;;;;;1.67;1.30;;;;;;;1.24;100.00;99736.28;5001578;28;20271;-72
2023/12/24 03:15:15;;;;;;;1.30;1.20;;;;;;;1.24;100.00;99750.06;5001525;28;20636;-73
2023/12/24 03:17:41;;;;;;;1.53;1.37;;;;;;;1.24;100.00;99721.44;5002209;28;20208;-73
2023/12/24 03:20:08;;;;;;;2.33;1.30;;;;;;;1.24;100.00;99718.06;5001287;28;20273;-72
2023/12/24 03:22:35;;;;;;;1.40;1.30;;;;;;;1.23;100.00;99724.34;4998818;28;20690;-73
2023/12/24 03:25:01;;;;;;;1.23;1.10;;;;;;;1.25;100.00;99719.63;5002184;28;20851;-73
2023/12/24 03:27:28;;;;;;;1.67;1.10;;;;;;;1.24;100.00;99703.25;5001266;28;20220;-73
2023/12/24 03:29:55;;;;;;;1.20;1.00;;;;;;;1.24;100.00;99715.47;4998136;28;20622;-73
2023/12/24 03:32:22;;;;;;;1.00;0.90;;;;;;;1.24;100.00;99708.44;4998066;28;20280;-73
2023/12/24 03:34:48;;;;;;;2.10;1.30;;;;;;;1.24;100.00;99690.25;4997237;28;20220;-71
2023/12/24 03:37:15;;;;;;;1.23;1.10;;;;;;;1.25;100.00;99702.19;4996463;28;20204;-73
2023/12/24 03:39:41;;;;;;;1.60;1.50;;;;;;;1.23;100.00;99701.72;5004909;28;20224;-73
2023/12/24 03:42:07;;;;;;;1.93;1.30;;;;;;;1.24;100.00;99689.47;5006392;28;20194;-73
2023/12/24 03:44:34;;;;;;;1.63;1.30;;;;;;;1.26;100.00;99689.97;5009975;28;20230;-72
2023/12/24 03:47:02;;;;;;;1.40;1.07;;;;;;;1.25;100.00;99685.84;5008763;28;20205;-73
2023/12/24 03:49:28;;;;;;;2.10;1.10;;;;;;;1.26;100.00;99676.97;5010950;28;20231;-71
2023/12/24 03:51:55;;;;;;;1.90;1.30;;;;;;;1.26;100.00;99682.16;5014010;28;20213;-73
2023/12/24 03:54:21;;;;;;;1.50;1.27;;;;;;;1.29;100.00;99686.78;5010078;28;20378;-74
2023/12/24 03:56:48;;;;;;;1.40;1.30;;;;;;;1.29;100.00;99686.78;5007864;28;20215;-73
2023/12/24 03:59:16;;;;;;;1.57;1.30;;;;;;;1.31;100.00;99687.28;5007720;28;20209;-73
2023/12/24 04:01:42;;;;;;;2.23;1.50;;;;;;;1.31;100.00;99687.28;5007206;28;20231;-73
2023/12/24 04:04:10;;;;;;;2.37;1.57;;;;;;;1.32;100.00;99691.44;5005520;28;20217;-72
2023/12/24 04:06:36;;;;;;;1.83;1.67;;;;;;;1.32;100.00;99686.22;5007405;28;20299;-71
2023/12/24 04:09:03;;;;;;;1.97;1.50;;;;;;;1.33;100.00;99678.16;5015372;28;20220;-71
2023/12/24 04:11:30;;;;;;;2.37;1.80;;;;;;;1.35;100.00;99670.06;5020810;28;20215;-71
2023/12/24 04:13:57;;;;;;;2.40;1.50;;;;;;;1.36;100.00;99666.41;5019905;28;20204;-71
2023/12/24 04:16:23;;;;;;;1.60;1.30;;;;;;;1.36;100.00;99661.94;5024255;28;20235;-71
2023/12/24 04:18:50;;;;;;;2.90;1.30;;;;;;;1.37;100.00;99655.72;5022596;28;20208;-72
2023/12/24 04:21:17;;;;;;;2.20;1.30;;;;;;;1.41;100.00;99663.72;5015146;28;20220;-71
2023/12/24 04:23:44;;;;;;;1.37;1.20;;;;;;;1.41;100.00;99658.50;5023814;28;20227;-72
2023/12/24 04:26:11;;;;;;;1.20;1.10;;;;;;;1.43;100.00;99653.78;5013918;28;20570;-73
2023/12/24 04:28:37;;;;;;;1.50;1.20;;;;;;;1.42;100.00;99649.63;5018908;28;20218;-72
2023/12/24 04:31:04;;;;;;;1.47;1.30;;;;;;;1.43;100.00;99654.56;5003531;28;20204;-73
2023/12/24 04:33:31;;;;;;;4.00;1.10;;;;;;;1.44;100.00;99642.31;5000921;28;20227;-73
2023/12/24 04:35:57;;;;;;;2.70;1.00;;;;;;;1.45;100.00;99643.88;5002700;28;20227;-72
2023/12/24 04:38:25;;;;;;;1.17;1.07;;;;;;;1.45;100.00;99649.06;4996516;28;20199;-73
2023/12/24 04:40:52;;;;;;;0.90;0.90;;;;;;;1.47;100.00;99646.94;5004450;28;20224;-73
2023/12/24 04:43:18;;;;;;;1.43;1.23;;;;;;;1.46;100.00;99633.16;4997332;28;20200;-72
2023/12/24 04:45:45;;;;;;;1.00;0.90;;;;;;;1.48;100.00;99620.66;5001067;28;20672;-73
2023/12/24 04:48:11;;;;;;;0.90;0.90;;;;;;;1.47;100.00;99626.91;4998537;28;20549;-72
2023/12/24 04:50:37;;;;;;;0.73;0.70;;;;;;;1.50;100.00;99646.38;5003260;28;20235;-73
2023/12/24 04:53:04;;;;;;;14.23;5.93;;;;;;;1.50;100.00;99639.34;4996852;28;20208;-72
2023/12/24 04:55:32;;;;;;;8.60;3.93;;;;;;;1.51;100.00;99635.66;5001952;28;20211;-73
2023/12/24 04:57:58;;;;;;;5.17;2.80;;;;;;;1.51;100.00;99627.88;4996075;28;20207;-73
2023/12/24 05:00:25;;;;;;;2.30;1.03;;;;;;;1.51;100.00;99635.66;4995027;28;20646;-74
2023/12/24 05:02:51;;;;;;;28.73;12.37;;;;;;;1.53;100.00;99640.59;4994929;28;20212;-75
2023/12/24 05:05:18;;;;;;;6.90;3.47;;;;;;;1.53;100.00;99640.59;5000966;28;20216;-73
2023/12/24 05:07:44;;;;;;;2.53;1.87;;;;;;;1.54;100.00;99622.09;5005622;28;20216;-75
2023/12/24 05:10:11;;;;;;;4.30;1.03;;;;;;;1.55;100.00;99626.22;5003738;28;21025;-75
2023/12/24 05:12:39;;;;;;;0.80;0.80;;;;;;;1.56;100.00;99622.56;5017525;28;20244;-75
2023/12/24 05:15:06;;;;;;;1.17;0.97;;;;;;;1.58;100.00;99624.88;5005096;28;20197;-74
2023/12/24 05:17:32;;;;;;;1.90;0.90;;;;;;;1.58;100.00;99623.06;5004135;28;20204;-74
2023/12/24 05:19:59;;;;;;;1.20;1.00;;;;;;;1.59;100.00;99627.22;5020450;28;20265;-74
2023/12/24 05:22:25;;;;;;;1.20;1.10;;;;;;;1.61;100.00;99627.69;5006144;28;20196;-75
2023/12/24 05:24:52;;;;;;;1.67;1.20;;;;;;;1.63;100.00;99625.56;5001240;28;20240;-75
2023/12/24 05:27:18;;;;;;;1.43;1.10;;;;;;;1.65;100.00;99626.03;5001241;28;20219;-75
2023/12/24 05:29:46;;;;;;;0.93;0.87;;;;;;;1.65;100.00;99626.03;4997266;28;20243;-75
2023/12/24 05:32:12;;;;;;;1.47;1.20;;;;;;;1.68;100.00;99627.28;5003213;28;20209;-75
2023/12/24 05:34:38;;;;;;;1.43;1.30;;;;;;;1.69;100.00;99616.59;5001098;28;20205;-76
2023/12/24 05:37:05;;;;;;;1.80;1.43;;;;;;;1.72;100.00;99613.41;4999557;28;20201;-73
2023/12/24 05:39:31;;;;;;;1.80;1.60;;;;;;;1.76;100.00;99618.81;5002379;28;20221;-75
2023/12/24 05:41:57;;;;;;;1.20;1.07;;;;;;;1.79;100.00;99620.81;5001509;28;20215;-75
2023/12/24 05:44:24;;;;;;;1.70;1.50;;;;;;;1.81;100.00;99611.66;5003432;28;20387;-75
2023/12/24 05:46:52;;;;;;;1.70;1.40;;;;;;;1.84;100.00;99613.69;5002368;28;20212;-74
2023/12/24 05:49:19;;;;;;;1.50;1.40;;;;;;;1.89;100.00;99612.81;5013473;28;20233;-74
2023/12/24 05:51:45;;;;;;;1.83;1.60;;;;;;;1.92;100.00;99614.84;5000040;28;20198;-75
2023/12/24 05:54:11;;;;;;;1.40;1.30;;;;;;;1.96;100.00;99621.00;4995154;28;20221;-75
2023/12/24 05:56:38;;;;;;;1.87;1.37;;;;;;;1.97;100.00;99615.50;4999313;28;20291;-75
2023/12/24 05:59:04;;;;;;;1.40;1.23;;;;;;;2.02;100.00;99618.00;4998342;28;20235;-75
2023/12/24 06:01:30;;;;;;;2.43;1.57;;;;;;;2.07;100.00;99620.50;4999660;28;20202;-73
2023/12/24 06:03:59;;;;;;;2.80;1.97;;;;;;;2.12;100.00;99619.59;4999482;28;20211;-73
2023/12/24 06:06:25;;;;;;;3.83;1.80;;;;;;;2.16;100.00;99612.75;4997409;28;20201;-73
2023/12/24 06:08:51;;;;;;;2.63;1.97;;;;;;;2.20;100.00;99632.72;5000454;28;20224;-72
2023/12/24 06:11:18;;;;;;;1.90;1.57;;;;;;;2.25;100.00;99622.22;5002384;28;20201;-73
2023/12/24 06:13:44;;;;;;;2.00;1.40;;;;;;;2.30;100.00;99616.88;5006227;28;20212;-73
2023/12/24 06:16:12;;;;;;;1.70;1.50;;;;;;;2.36;100.00;99615.72;4998002;28;20216;-73
2023/12/24 06:18:40;;;;;;;1.50;1.37;;;;;;;2.46;100.00;99618.09;5001727;28;20244;-73
2023/12/24 06:21:09;;;;;;;6.30;1.00;;;;;;;2.60;100.00;99620.63;5004385;28;20239;-72
2023/12/24 06:23:36;;;;;;;1.20;1.10;;;;;;;2.79;100.00;99627.22;5002979;28;20197;-72
2023/12/24 06:26:02;;;;;;;1.10;1.00;;;;;;;3.00;100.00;99624.91;4998895;28;20207;-73
2023/12/24 06:28:28;;;;;;;1.50;1.20;;;;;;;3.23;100.00;99616.72;4999083;28;20202;-73
2023/12/24 06:30:55;;;;;;;1.27;0.97;;;;;;;3.37;100.00;99616.63;4999158;28;20224;-72
2023/12/24 06:33:22;;;;;;;1.83;1.07;;;;;;;3.62;100.00;99623.75;4995522;28;20686;-73
2023/12/24 06:35:48;;;;;;;2.03;1.17;;;;;;;3.87;100.00;99620.47;4996626;28;20204;-73
2023/12/24 06:38:16;;;;;;;1.13;1.03;;;;;;;4.06;100.00;99624.38;4994426;28;20205;-73
2023/12/24 06:40:42;;;;;;;2.80;1.37;;;;;;;4.20;100.00;99622.34;4995572;28;20232;-73
2023/12/24 06:43:09;;;;;;;1.40;1.30;;;;;;;4.36;100.00;99622.69;4992180;28;20208;-73
2023/12/24 06:45:35;;;;;;;1.40;1.30;;;;;;;4.49;100.00;99619.13;4997672;28;20201;-73
2023/12/24 06:48:03;;;;;;;4.70;1.80;;;;;;;4.63;100.00;99610.09;4997067;28;20228;-71
2023/12/24 06:50:29;;;;;;;2.73;1.37;;;;;;;4.74;100.00;99613.13;4998304;28;20579;-73
2023/12/24 06:52:57;;;;;;;3.27;1.40;;;;;;;4.92;100.00;99615.41;4996388;28;20296;-73
2023/12/24 06:55:24;;;;;;;1.90;1.60;;;;;;;5.06;100.00;99620.44;4996692;28;20208;-73
2023/12/24 06:57:51;;;;;;;2.30;1.70;;;;;;;5.12;100.00;99619.22;4996197;28;20216;-73
2023/12/24 07:00:17;;;;;;;3.50;1.70;;;;;;;5.24;100.00;99614.09;4995510;28;20221;-73
2023/12/24 07:02:44;;;;;;;4.93;1.90;;;;;;;5.40;100.00;99615.13;4995794;28;20408;-73
2023/12/24 07:05:10;;;;;;;2.00;1.80;;;;;;;5.50;100.00;99620.00;4999284;28;20203;-73
2023/12/24 07:07:37;;;;;;;3.07;2.10;;;;;;;5.65;100.00;99617.59;4994719;28;20689;-72
2023/12/24 07:10:04;;;;;;;1.93;1.70;;;;;;;5.74;100.00;99620.97;4995447;28;20663;-73
2023/12/24 07:12:31;;;;;;;2.00;1.80;;;;;;;5.83;100.00;99613.09;4994585;28;20201;-73
2023/12/24 07:14:58;;;;;;;3.30;1.90;;;;;;;5.94;100.00;99614.25;4998774;28;20262;-73
2023/12/24 07:17:24;;;;;;;3.17;1.70;;;;;;;6.01;100.00;99617.91;4996045;28;20271;-73
2023/12/24 07:19:50;;;;;;;2.80;1.97;;;;;;;6.11;100.00;99616.78;4994716;28;20217;-73
2023/12/24 07:22:17;;;;;;;3.00;1.73;;;;;;;6.15;100.00;99622.91;4995489;28;20231;-73
2023/12/24 07:24:44;;;;;;;2.00;1.80;;;;;;;6.20;100.00;99612.22;4995751;28;20560;-73
2023/12/24 07:27:10;;;;;;;2.03;1.50;;;;;;;6.30;100.00;99624.94;4995741;28;20209;-73
2023/12/24 07:29:41;;;;;;;3.00;2.20;;;;;;;6.35;100.00;99617.66;4995465;28;20241;-73
2023/12/24 07:32:07;;;;;;;3.20;1.67;;;;;;;6.41;100.00;99619.00;4995311;28;20215;-71
2023/12/24 07:34:33;;;;;;;1.93;1.70;;;;;;;6.45;100.00;99619.13;4994062;28;20209;-71
2023/12/24 07:37:00;;;;;;;2.33;1.63;;;;;;;6.52;100.00;99612.28;4989473;28;20581;-72
2023/12/24 07:39:27;;;;;;;3.33;1.70;;;;;;;6.59;100.00;99615.16;4993910;28;20311;-73
2023/12/24 07:41:55;;;;;;;3.03;1.70;;;;;;;6.65;100.00;99626.22;4997990;28;20546;-73
2023/12/24 07:44:21;;;;;;;3.13;1.70;;;;;;;6.71;100.00;99611.81;4994552;28;20211;-72
2023/12/24 07:46:49;;;;;;;2.10;1.63;;;;;;;6.78;100.00;99607.56;4993682;28;20668;-73
2023/12/24 07:49:15;;;;;;;3.50;1.60;;;;;;;6.83;100.00;99599.50;4997214;28;20220;-71
2023/12/24 07:51:42;;;;;;;2.10;1.60;;;;;;;6.88;100.00;99599.28;4994634;28;20201;-73
2023/12/24 07:54:08;;;;;;;3.33;1.80;;;;;;;6.94;100.00;99602.50;4994535;28;20197;-72
2023/12/24 07:56:34;;;;;;;4.70;1.80;;;;;;;6.95;100.00;99610.03;4995377;28;20213;-73
2023/12/24 07:59:01;;;;;;;1.70;1.47;;;;;;;6.98;100.00;99604.13;4997974;28;20571;-73
2023/12/24 08:01:27;;;;;;;2.03;1.30;;;;;;;7.01;100.00;99595.63;4992475;28;20205;-73
2023/12/24 08:03:55;;;;;;;2.03;1.63;;;;;;;7.05;100.00;99606.97;4993656;28;20209;-73
2023/12/24 08:06:22;;;;;;;3.30;1.70;;;;;;;7.07;100.00;99596.94;4993474;28;20209;-73
2023/12/24 08:08:48;;;;;;;2.83;1.80;;;;;;;7.11;100.00;99597.06;4996126;28;20215;-72
2023/12/24 08:11:14;;;;;;;2.10;1.73;;;;;;;7.15;100.00;99592.69;4992038;28;20198;-73
2023/12/24 08:13:41;;;;;;;2.87;1.57;;;;;;;7.18;100.00;99592.03;4994433;28;20656;-73
2023/12/24 08:16:07;;;;;;;6.43;2.10;;;;;;;7.21;100.00;99601.88;4992730;28;20212;-72
2023/12/24 08:18:37;;;;;;;1.50;1.40;;;;;;;7.25;100.00;99587.03;4995706;28;20202;-73
2023/12/24 08:21:06;;;;;;;1.77;1.63;;;;;;;7.27;100.00;99601.34;4993800;28;20198;-73
2023/12/24 08:23:33;;;;;;;5.93;1.80;;;;;;;7.30;100.00;99599.94;4992325;28;20779;-73
2023/12/24 08:25:59;;;;;;;1.40;1.30;;;;;;;7.34;100.00;99604.19;4993698;28;20202;-73
2023/12/24 08:28:26;;;;;;;1.80;1.53;;;;;;;7.38;100.00;99606.94;4989518;28;20214;-73
2023/12/24 08:30:52;;;;;;;2.87;1.50;;;;;;;7.41;100.00;99606.28;4994735;28;20248;-73
2023/12/24 08:33:18;;;;;;;3.57;1.40;;;;;;;7.44;100.00;99600.34;4992812;28;20596;-71
2023/12/24 08:35:45;;;;;;;1.13;1.03;;;;;;;7.47;100.00;99602.34;4994813;28;20676;-71
2023/12/24 08:38:12;;;;;;;2.90;1.40;;;;;;;7.52;100.00;99604.75;4995875;28;20717;-73
2023/12/24 08:40:39;;;;;;;1.20;1.00;;;;;;;7.56;100.00;99603.75;4997619;28;20213;-72
2023/12/24 08:43:05;;;;;;;3.23;1.50;;;;;;;7.59;100.00;99607.59;4995300;28;20199;-70
2023/12/24 08:45:31;;;;;;;1.57;1.20;;;;;;;7.60;100.00;99599.38;4994145;28;20202;-71
2023/12/24 08:47:58;;;;;;;1.10;0.90;;;;;;;7.63;100.00;99596.13;5001095;28;20207;-73
2023/12/24 08:50:24;;;;;;;1.20;1.10;;;;;;;7.66;100.00;99595.44;4993561;28;20227;-73
2023/12/24 08:52:50;;;;;;;2.03;1.10;;;;;;;7.68;100.00;99595.91;4995390;28;20212;-73
2023/12/24 08:55:18;;;;;;;1.13;1.03;;;;;;;7.71;100.00;99597.09;4995415;28;20210;-73
2023/12/24 08:57:45;;;;;;;2.67;1.30;;;;;;;7.71;100.00;99587.34;4999267;28;20206;-73
2023/12/24 09:00:12;;;;;;;1.20;1.10;;;;;;;7.75;100.00;99590.06;5002075;28;20728;-71
2023/12/24 09:02:39;;;;;;;6.57;4.27;;;;;;;7.78;100.00;99602.56;4998214;28;20209;-73
2023/12/24 09:05:07;;;;;;;2.83;2.50;;;;;;;7.81;100.00;99604.53;4996393;28;20565;-71
2023/12/24 09:07:34;;;;;;;3.27;2.97;;;;;;;7.83;100.00;99597.06;4998367;28;20222;-73
2023/12/24 09:10:00;;;;;;;2.10;1.80;;;;;;;7.87;100.00;99595.31;4995965;28;20671;-73
2023/12/24 09:12:27;;;;;;;1.83;1.40;;;;;;;7.87;100.00;99590.81;4994904;28;20204;-73
2023/12/24 09:14:54;;;;;;;1.53;1.03;;;;;;;7.91;100.00;99585.66;4997206;28;20208;-73
2023/12/24 09:17:20;;;;;;;2.30;1.40;;;;;;;7.93;100.00;99584.22;4999116;28;20197;-74
2023/12/24 09:19:47;;;;;;;29.97;17.10;;;;;;;7.97;100.00;99602.75;4993984;28;20222;-73
2023/12/24 09:22:13;;;;;;;5.13;3.47;;;;;;;8.02;100.00;99595.41;4995187;28;20571;-72
2023/12/24 09:24:39;;;;;;;7.03;4.47;;;;;;;8.07;100.00;99602.31;4990589;28;20199;-72
2023/12/24 09:27:06;;;;;;;1.87;1.07;;;;;;;8.10;100.00;99599.78;4991609;28;20575;-72
2023/12/24 09:29:34;;;;;;;1.13;1.03;;;;;;;8.15;100.00;99596.13;4993269;28;20578;-73
2023/12/24 09:32:00;;;;;;;0.80;0.80;;;;;;;8.19;100.00;99594.38;4993235;28;20760;-72
2023/12/24 09:34:26;;;;;;;0.93;0.93;;;;;;;8.24;100.00;99599.44;4992139;28;21088;-73
2023/12/24 09:36:52;;;;;;;1.30;1.20;;;;;;;8.28;100.00;99593.16;4994939;28;20579;-73
2023/12/24 09:39:19;;;;;;;2.27;1.10;;;;;;;8.32;100.00;99593.25;4994003;28;20240;-73
2023/12/24 09:41:45;;;;;;;3.17;0.87;;;;;;;8.37;100.00;99590.41;4992663;28;20211;-73
2023/12/24 09:44:12;;;;;;;1.00;0.90;;;;;;;8.40;100.00;99600.25;4998159;28;20214;-73
2023/12/24 09:46:39;;;;;;;1.20;1.10;;;;;;;8.43;100.00;99595.09;4999051;28;20598;-73
2023/12/24 09:49:06;;;;;;;1.60;1.00;;;;;;;8.46;100.00;99597.06;4993919;28;20227;-72
2023/12/24 09:51:34;;;;;;;1.43;0.80;;;;;;;8.50;100.00;99584.00;4996821;28;20215;-71
2023/12/24 09:54:01;;;;;;;1.43;0.80;;;;;;;8.56;100.00;99587.94;4999416;28;20203;-73
2023/12/24 09:56:28;;;;;;;1.07;0.97;;;;;;;8.59;100.00;99593.28;4988931;28;20219;-73
2023/12/24 09:58:54;;;;;;;0.63;0.63;;;;;;;8.61;100.00;99587.69;4975606;28;20242;-73
2023/12/24 10:01:20;;;;;;;2.07;1.23;;;;;;;8.62;100.00;99581.31;4988289;28;20201;-72
2023/12/24 10:03:48;;;;;;;2.33;0.97;;;;;;;8.65;100.00;99593.81;4989348;28;20207;-72
2023/12/24 10:06:15;;;;;;;0.80;0.77;;;;;;;8.66;100.00;99582.19;4990899;28;20196;-72
2023/12/24 10:08:41;;;;;;;0.70;0.70;;;;;;;8.68;100.00;99593.13;4985791;28;21138;-73
2023/12/24 10:11:16;;;;;;;2.30;0.83;;;;;;;8.70;100.00;99585.69;4991107;28;20260;-71
2023/12/24 10:13:43;;;;;;;0.90;0.90;;;;;;;8.70;100.00;99586.44;4996488;28;20204;-73
2023/12/24 10:16:10;;;;;;;0.90;0.80;;;;;;;8.72;100.00;99578.19;4991976;28;20199;-73
2023/12/24 10:18:36;;;;;;;1.13;0.90;;;;;;;8.74;100.00;99576.75;4994664;28;20201;-72
2023/12/24 10:21:10;;;;;;;0.73;0.73;;;;;;;8.76;100.00;99564.03;4997820;28;20212;-72
2023/12/24 10:23:37;;;;;;;1.13;0.93;;;;;;;8.79;100.00;99571.25;4996226;28;20218;-73
2023/12/24 10:26:05;;;;;;;0.93;0.93;;;;;;;8.82;100.00;99561.91;4996012;28;20204;-73
2023/12/24 10:28:32;;;;;;;0.90;0.90;;;;;;;8.83;100.00;99561.59;4991859;28;20208;-73
2023/12/24 10:31:09;;;;;;;1.50;0.90;;;;;;;8.87;100.00;99569.56;4991360;28;21122;-72
2023/12/24 10:33:35;;;;;;;1.30;1.00;;;;;;;8.89;100.00;99551.56;4993064;28;20755;-71
2023/12/24 10:36:02;;;;;;;1.00;0.80;;;;;;;8.91;100.00;99554.63;4994710;28;20212;-73
2023/12/24 10:38:30;;;;;;;1.70;1.03;;;;;;;8.93;100.00;99534.75;4995622;28;20957;-73
2023/12/24 10:40:56;;;;;;;0.97;0.97;;;;;;;8.93;100.00;99529.50;4998694;28;20220;-73
2023/12/24 10:43:23;;;;;;;0.97;0.97;;;;;;;8.95;100.00;99521.28;4995675;28;20603;-73
2023/12/24 10:45:49;;;;;;;0.97;0.73;;;;;;;8.98;100.00;99523.19;4996107;28;20306;-73
2023/12/24 10:48:15;;;;;;;1.30;1.20;;;;;;;9.00;100.00;99528.91;4991778;28;20197;-72
2023/12/24 10:50:42;;;;;;;0.90;0.90;;;;;;;9.01;100.00;99527.81;4991649;28;20216;-72
2023/12/24 10:53:08;;;;;;;1.00;0.90;;;;;;;9.01;100.00;99533.81;4997074;28;20197;-72
2023/12/24 10:55:36;;;;;;;2.97;1.00;;;;;;;9.03;100.00;99520.31;4993194;28;20201;-73
2023/12/24 10:58:10;;;;;;;0.90;0.90;;;;;;;9.04;100.00;99514.72;4990893;28;20703;-72
2023/12/24 11:00:37;;;;;;;0.87;0.87;;;;;;;9.05;100.00;99523.38;4994094;28;20743;-72
2023/12/24 11:03:04;;;;;;;1.00;1.00;;;;;;;9.07;100.00;99513.28;4993713;28;20215;-72
2023/12/24 11:05:48;;;;;;;1.40;1.00;;;;;;;9.09;100.00;99535.53;4993450;28;20557;-73
2023/12/24 11:08:28;;;;;;;1.20;1.10;;;;;;;9.13;100.00;99536.38;4990912;28;20546;-72
2023/12/24 11:10:57;;;;;;;2.17;1.10;;;;;;;9.15;100.00;99510.47;4995252;28;21117;-73
2023/12/24 11:13:45;;;;;;;1.07;0.90;;;;;;;9.18;100.00;99514.28;4995703;28;20197;-73
2023/12/24 11:16:12;;;;;;;1.27;1.00;;;;;;;9.19;100.00;99523.72;4993961;28;20559;-73
2023/12/24 11:18:43;;;;;;;0.80;0.80;;;;;;;9.22;100.00;99515.13;4994337;28;20208;-72
2023/12/24 11:21:11;;;;;;;1.17;0.90;;;;;;;9.24;100.00;99499.75;4992483;28;20205;-73
2023/12/24 11:23:38;;;;;;;1.00;0.90;;;;;;;9.26;100.00;99508.09;4991810;28;20221;-72
2023/12/24 11:26:30;;;;;;;0.80;0.80;;;;;;;9.29;100.00;99500.25;4991193;28;20205;-71
2023/12/24 11:28:57;;;;;;;1.00;1.00;;;;;;;9.32;100.00;99501.44;4994605;28;20671;-73
2023/12/24 11:31:24;;;;;;;0.60;0.60;;;;;;;9.34;100.00;99489.47;4989473;28;20213;-73
2023/12/24 11:33:54;;;;;;;1.20;0.90;;;;;;;9.38;100.00;99494.81;4990366;28;20702;-71